Denver, Colorado
Traffic Map
Current Weather Conditions
Denver, Colorado
Scattered Clouds
Scattered Clouds
39°
Feels Like: 35°
Wind Chill: 35° Ceiling: Unl
Heat Index: 39° Visibility: 70mi
Dew Point: 21° Wind: 6mph
Humidity: 49% Direction: 290° (WNW)
Pressure: 29.84in Gusts: 0mph
Raw Report DataKBKF 161255Z 29005KT 70SM FEW110 SCT220 04/M06 A2984 RMK SLP067
Traffic Incident Summary
Active as of:
Severity:
Category:
InformationThere was an issue retrieving the traffic information for this location. Please try a different location or try again shortly.
Advertisements
At Last! Intellicast now available for iPhone and Android